YUL weather

Montreal / Pierre Elliott Trudeau International Airport
Montréal, Quebec, Canada

Public forecast

Using degrees Celsius for public forecast. Weather courtesy of forecast.io.

METAR (pilot weather report)

Retrieved 2018/12/19 15:00 UTC (37 minutes ago):

CYUL 191500Z 16006KT 15SM OVC021 M06/M11 A3006 RMK SC8 SLP184

TAF (pilot weather forecast)

Retrieved 2018/12/19 15:42 UTC (0 seconds ago):

TAF CYUL 191439Z 1915/2012 VRB03KT P6SM OVC015 BECMG 1915/1917 14006KT FM191900 VRB03KT P6SM SCT008 OVC012 FM192300 VRB03KT P6SM FEW020 BKN200 RMK NXT FCST BY 191800Z